createdAt,value
2022-12-03T00:03:33.555Z,15.63
2022-12-03T00:08:37.143Z,15.55
2022-12-03T00:13:40.613Z,15.52
2022-12-03T00:18:44.325Z,15.48
2022-12-03T00:23:48.145Z,15.42
2022-12-03T00:28:52.175Z,15.45
2022-12-03T00:33:55.747Z,15.41
2022-12-03T00:38:59.263Z,15.49
2022-12-03T00:44:02.605Z,15.56
2022-12-03T00:49:05.931Z,15.60
2022-12-03T00:54:11.497Z,15.61
2022-12-03T00:59:14.878Z,15.61
2022-12-03T01:04:18.428Z,15.67
2022-12-03T01:09:23.208Z,15.73
2022-12-03T01:14:27.005Z,15.82
2022-12-03T01:19:30.434Z,15.89
2022-12-03T01:24:34.554Z,15.97
2022-12-03T01:29:38.070Z,15.99
2022-12-03T01:34:41.361Z,16.00
2022-12-03T01:39:44.456Z,16.03
2022-12-03T01:44:48.547Z,16.07
2022-12-03T01:49:56.904Z,16.09
2022-12-03T01:55:03.090Z,16.07
2022-12-03T02:00:13.205Z,16.09
2022-12-03T02:05:23.090Z,16.09
2022-12-03T02:10:31.627Z,16.07
2022-12-03T02:15:38.398Z,16.03
2022-12-03T02:21:41.253Z,16.01
2022-12-03T02:26:44.632Z,15.99
2022-12-03T02:31:48.104Z,15.96
2022-12-03T02:36:51.574Z,15.97
2022-12-03T02:41:55.274Z,15.97
2022-12-03T02:46:58.782Z,16.00
2022-12-03T02:52:02.624Z,16.03
2022-12-03T02:57:06.529Z,16.02
2022-12-03T03:02:10.599Z,15.99
2022-12-03T03:07:15.077Z,15.89
2022-12-03T03:12:20.516Z,15.79
2022-12-03T03:17:25.404Z,15.74
2022-12-03T03:22:36.811Z,15.72
2022-12-03T03:27:41.312Z,15.69
2022-12-03T03:32:46.108Z,15.70
2022-12-03T03:37:51.244Z,15.71
2022-12-03T03:42:55.967Z,15.73
2022-12-03T03:48:00.871Z,15.74
2022-12-03T03:53:05.396Z,15.73
2022-12-03T03:58:09.352Z,15.70
2022-12-03T04:03:13.120Z,15.67
2022-12-03T04:08:17.890Z,15.66
2022-12-03T04:13:21.250Z,15.66
2022-12-03T04:18:24.497Z,15.65
2022-12-03T04:23:30.840Z,15.70
2022-12-03T04:28:34.400Z,15.78
2022-12-03T04:33:39.013Z,15.80
2022-12-03T04:38:42.499Z,15.77
2022-12-03T04:43:45.865Z,15.77
2022-12-03T04:48:49.637Z,15.80
2022-12-03T04:53:54.693Z,15.82
2022-12-03T04:58:58.113Z,15.84
2022-12-03T05:04:01.477Z,15.88
2022-12-03T05:09:05.998Z,15.93
2022-12-03T05:14:10.048Z,16.01
2022-12-03T05:19:13.726Z,16.07
2022-12-03T05:24:17.179Z,16.13
2022-12-03T05:29:20.629Z,16.15
2022-12-03T05:34:26.384Z,16.19
2022-12-03T05:39:29.970Z,16.34
2022-12-03T05:44:35.058Z,16.51
2022-12-03T05:49:38.720Z,16.65
2022-12-03T05:54:42.500Z,16.96
2022-12-03T05:59:45.874Z,17.47
2022-12-03T06:04:49.861Z,17.57
2022-12-03T06:09:54.423Z,17.42
2022-12-03T06:14:58.713Z,17.37
2022-12-03T06:20:02.433Z,17.41
2022-12-03T06:25:07.564Z,17.51
2022-12-03T06:30:13.423Z,17.53
2022-12-03T06:35:16.984Z,17.60
2022-12-03T06:40:20.355Z,17.73
2022-12-03T06:45:23.665Z,17.94
2022-12-03T06:50:27.561Z,17.99
2022-12-03T06:55:32.349Z,18.12
2022-12-03T07:00:35.729Z,18.38
2022-12-03T07:05:39.084Z,18.50
2022-12-03T07:10:42.323Z,18.64
2022-12-03T07:15:45.673Z,18.73
2022-12-03T07:20:49.288Z,18.71
2022-12-03T07:25:52.971Z,18.79
2022-12-03T07:30:56.346Z,18.79
2022-12-03T07:35:59.717Z,18.57
2022-12-03T07:41:03.144Z,18.41
2022-12-03T07:46:06.658Z,18.21
2022-12-03T07:51:14.217Z,18.09
2022-12-03T07:56:18.967Z,18.10
2022-12-03T08:01:23.796Z,18.27
2022-12-03T08:06:27.209Z,18.43
2022-12-03T08:11:30.730Z,18.46
2022-12-03T08:16:37.464Z,18.43
2022-12-03T08:21:43.381Z,18.31
2022-12-03T08:26:49.343Z,18.32
2022-12-03T08:31:54.587Z,18.52
2022-12-03T08:37:06.367Z,18.90
2022-12-03T08:42:25.672Z,19.13
2022-12-03T08:47:30.008Z,19.23
2022-12-03T08:52:34.731Z,19.07
2022-12-03T08:57:38.346Z,19.01
2022-12-03T09:02:48.090Z,18.91
2022-12-03T09:07:51.775Z,18.81
2022-12-03T09:12:55.401Z,18.74
2022-12-03T09:18:01.244Z,18.81
2022-12-03T09:23:06.173Z,18.84
2022-12-03T09:28:09.724Z,18.99
2022-12-03T09:33:13.242Z,19.30
2022-12-03T09:38:17.073Z,19.66
2022-12-03T09:43:21.081Z,19.92
2022-12-03T09:48:24.533Z,19.90
2022-12-03T09:53:28.647Z,19.84
2022-12-03T09:58:34.935Z,19.67
2022-12-03T10:03:43.501Z,19.63
2022-12-03T10:08:53.810Z,19.78
2022-12-03T10:13:58.834Z,20.08
2022-12-03T10:19:02.499Z,20.31
2022-12-03T10:24:29.038Z,20.26
2022-12-03T10:29:35.727Z,20.20
2022-12-03T10:34:42.212Z,20.11
2022-12-03T10:39:57.584Z,20.04
2022-12-03T10:45:20.214Z,19.90
2022-12-03T10:50:27.494Z,19.89
2022-12-03T10:55:44.574Z,19.87
2022-12-03T11:00:48.760Z,19.78
2022-12-03T11:05:53.711Z,19.77
2022-12-03T11:11:21.841Z,19.66
2022-12-03T11:16:45.785Z,19.64
2022-12-03T11:22:04.136Z,19.54
2022-12-03T11:27:17.335Z,19.46
2022-12-03T11:32:39.374Z,19.34
2022-12-03T11:37:43.147Z,19.34
2022-12-03T11:42:48.605Z,19.47
2022-12-03T11:47:58.550Z,19.63
2022-12-03T11:53:13.206Z,19.70
2022-12-03T11:58:18.549Z,19.89
2022-12-03T12:03:32.889Z,20.05
2022-12-03T12:08:52.296Z,20.02
2022-12-03T12:14:15.040Z,20.01
2022-12-03T12:19:35.813Z,19.97
2022-12-03T12:24:39.460Z,19.93
2022-12-03T12:29:45.205Z,19.91
2022-12-03T12:34:54.629Z,19.88
2022-12-03T12:39:58.825Z,19.81
2022-12-03T12:45:16.682Z,19.67
2022-12-03T12:50:20.258Z,19.52
2022-12-03T12:55:24.641Z,19.40
2022-12-03T13:00:28.283Z,19.39
2022-12-03T13:05:51.532Z,19.19
2022-12-03T13:10:57.727Z,18.98
2022-12-03T13:16:23.419Z,18.83
2022-12-03T13:21:43.329Z,18.74
2022-12-03T13:26:46.745Z,18.68
2022-12-03T13:32:02.562Z,18.65
2022-12-03T13:37:27.359Z,18.65
2022-12-03T13:42:34.048Z,18.57
2022-12-03T13:47:39.067Z,18.46
2022-12-03T13:52:42.530Z,18.42
2022-12-03T13:57:45.865Z,18.37
2022-12-03T14:02:49.424Z,18.34
2022-12-03T14:07:52.889Z,18.30
2022-12-03T14:12:57.465Z,18.22
2022-12-03T14:18:00.924Z,18.13
2022-12-03T14:23:04.296Z,18.03
2022-12-03T14:28:07.614Z,17.94
2022-12-03T14:33:11.195Z,17.83
2022-12-03T14:38:15.976Z,17.73
2022-12-03T14:43:19.323Z,17.65
2022-12-03T14:48:23.400Z,17.56
2022-12-03T14:53:27.647Z,17.56
2022-12-03T14:58:32.240Z,17.52
2022-12-03T15:03:35.690Z,17.51
2022-12-03T15:08:39.245Z,17.47
2022-12-03T15:13:42.825Z,17.44
2022-12-03T15:18:46.232Z,17.40
2022-12-03T15:23:49.655Z,17.41
2022-12-03T15:28:53.440Z,17.38
2022-12-03T15:33:57.224Z,17.35
2022-12-03T15:39:00.894Z,17.33
2022-12-03T15:44:06.036Z,17.30
2022-12-03T15:49:10.060Z,17.25
2022-12-03T15:54:13.671Z,17.23
2022-12-03T15:59:17.826Z,17.17
2022-12-03T16:04:21.186Z,17.18
2022-12-03T16:09:27.482Z,17.14
2022-12-03T16:14:31.427Z,17.12
2022-12-03T16:19:34.989Z,17.06
2022-12-03T16:24:39.991Z,17.03
2022-12-03T16:29:43.487Z,16.99
2022-12-03T16:34:46.964Z,16.95
2022-12-03T16:39:50.676Z,16.93
2022-12-03T16:44:55.011Z,16.90
2022-12-03T16:49:58.341Z,16.85
2022-12-03T16:55:02.352Z,16.81
2022-12-03T17:00:07.104Z,16.78
2022-12-03T17:05:10.826Z,16.74
2022-12-03T17:10:14.498Z,16.70
2022-12-03T17:15:17.947Z,16.67
2022-12-03T17:20:21.421Z,16.65
2022-12-03T17:25:24.794Z,16.58
2022-12-03T17:30:29.681Z,16.56
2022-12-03T17:35:34.396Z,16.53
2022-12-03T17:40:37.844Z,16.51
2022-12-03T17:45:41.419Z,16.50
2022-12-03T17:50:45.025Z,16.55
2022-12-03T17:55:48.440Z,16.57
2022-12-03T18:00:53.256Z,16.59
2022-12-03T18:05:59.770Z,16.65
2022-12-03T18:11:04.110Z,16.76
2022-12-03T18:16:07.859Z,16.94
2022-12-03T18:21:12.836Z,17.04
2022-12-03T18:26:17.436Z,17.06
2022-12-03T18:31:22.869Z,17.08
2022-12-03T18:36:33.065Z,17.04
2022-12-03T18:41:36.556Z,16.98
2022-12-03T18:46:55.612Z,17.00
2022-12-03T18:51:59.865Z,17.03
2022-12-03T18:57:03.614Z,17.03
2022-12-03T19:02:08.153Z,17.01
2022-12-03T19:07:12.518Z,16.97
2022-12-03T19:12:15.915Z,16.97
2022-12-03T19:17:21.521Z,16.96
2022-12-03T19:22:25.637Z,16.97
2022-12-03T19:27:33.128Z,16.98
2022-12-03T19:32:36.782Z,16.94
2022-12-03T19:37:40.351Z,16.93
2022-12-03T19:42:44.361Z,16.92
2022-12-03T19:47:48.510Z,16.94
2022-12-03T19:52:52.349Z,16.88
2022-12-03T19:57:56.802Z,16.84
2022-12-03T20:03:01.423Z,16.80
2022-12-03T20:08:06.966Z,16.82
2022-12-03T20:13:10.341Z,16.78
2022-12-03T20:18:13.736Z,16.76
2022-12-03T20:23:18.307Z,16.80
2022-12-03T20:28:22.975Z,16.83
2022-12-03T20:33:27.135Z,16.82
2022-12-03T20:38:31.411Z,16.79
2022-12-03T20:43:35.811Z,16.75
2022-12-03T20:48:40.140Z,16.70
2022-12-03T20:53:45.292Z,16.69
2022-12-03T20:58:49.694Z,16.67
2022-12-03T21:03:57.322Z,16.65
2022-12-03T21:09:01.237Z,16.64
2022-12-03T21:14:05.458Z,16.62
2022-12-03T21:19:10.077Z,16.66
2022-12-03T21:24:13.547Z,16.65
2022-12-03T21:29:17.152Z,16.63
2022-12-03T21:34:20.585Z,16.57
2022-12-03T21:39:24.248Z,16.62
2022-12-03T21:44:27.793Z,16.64
2022-12-03T21:49:31.006Z,16.58
2022-12-03T21:54:34.827Z,16.60
2022-12-03T21:59:38.271Z,16.55
2022-12-03T22:04:42.556Z,16.58
2022-12-03T22:09:46.048Z,16.59
2022-12-03T22:14:49.543Z,16.54
2022-12-03T22:19:53.588Z,16.49
2022-12-03T22:24:57.440Z,16.49
2022-12-03T22:30:01.181Z,16.45
2022-12-03T22:35:05.808Z,16.39
2022-12-03T22:40:10.272Z,16.36
2022-12-03T22:45:13.720Z,16.39
2022-12-03T22:50:17.143Z,16.38
2022-12-03T22:55:20.873Z,16.42
2022-12-03T23:00:32.404Z,16.42
2022-12-03T23:05:37.902Z,16.42
2022-12-03T23:10:44.419Z,16.37
2022-12-03T23:15:50.397Z,16.35
2022-12-03T23:20:56.211Z,16.32
2022-12-03T23:26:02.007Z,16.27
2022-12-03T23:31:06.508Z,16.26
2022-12-03T23:36:10.585Z,16.24
2022-12-03T23:41:19.424Z,16.22
2022-12-03T23:46:25.719Z,16.21
2022-12-03T23:51:29.167Z,16.18
2022-12-03T23:56:32.907Z,16.17
